Time;durP1;ratioP1;P1;durP2;ratioP2;P2;SDS_P1;SDS_P2;PMS_P1;PMS_P2;Temp;Humidity;BMP_temperature;BMP_pressure;BME280_temperature;BME280_humidity;BME280_pressure;Samples;Min_cycle;Max_cycle;Signal;HPM_P1;HPM_P2
2022/01/09 00:01:16;;;;;;;2.77;2.00;;;;;;;2.74;76.01;98533.81;5018621;28;20195;-73
2022/01/09 00:03:44;;;;;;;3.30;1.80;;;;;;;2.74;76.60;98532.97;5017061;28;20216;-73
2022/01/09 00:06:10;;;;;;;5.90;3.27;;;;;;;2.73;75.87;98533.91;5015840;28;20241;-73
2022/01/09 00:08:38;;;;;;;3.93;2.50;;;;;;;2.73;76.30;98534.75;5021329;28;20210;-73
2022/01/09 00:11:04;;;;;;;3.40;2.03;;;;;;;2.73;76.88;98523.41;5015376;28;20199;-73
2022/01/09 00:13:31;;;;;;;4.00;2.20;;;;;;;2.75;76.66;98514.47;5020977;28;20210;-73
2022/01/09 00:15:58;;;;;;;4.67;2.60;;;;;;;2.75;77.01;98514.47;5017882;28;20292;-73
2022/01/09 00:18:24;;;;;;;4.37;2.10;;;;;;;2.78;76.67;98509.03;5019014;28;20221;-73
2022/01/09 00:20:52;;;;;;;5.33;2.80;;;;;;;2.78;76.17;98501.16;5018882;28;20206;-73
2022/01/09 00:23:18;;;;;;;3.87;2.20;;;;;;;2.79;77.06;98497.56;5020695;28;20687;-73
2022/01/09 00:25:45;;;;;;;3.93;3.07;;;;;;;2.76;77.07;98495.13;5016463;28;20230;-73
2022/01/09 00:28:12;;;;;;;4.57;2.80;;;;;;;2.76;76.40;98479.38;5016667;28;20205;-73
2022/01/09 00:30:38;;;;;;;4.23;2.57;;;;;;;2.77;77.08;98485.47;5017687;28;20198;-73
2022/01/09 00:33:05;;;;;;;3.60;2.47;;;;;;;2.76;76.96;98484.63;5022031;28;20207;-73
2022/01/09 00:35:32;;;;;;;4.03;2.70;;;;;;;2.73;76.48;98476.94;5022549;28;20229;-73
2022/01/09 00:37:59;;;;;;;3.43;2.40;;;;;;;2.74;77.17;98465.47;5023390;28;20238;-73
2022/01/09 00:40:26;;;;;;;3.10;2.27;;;;;;;2.75;76.54;98459.28;5023571;28;20301;-74
2022/01/09 00:42:53;;;;;;;2.80;2.03;;;;;;;2.76;76.20;98455.72;5019671;28;20210;-73
2022/01/09 00:45:19;;;;;;;3.53;2.10;;;;;;;2.78;76.65;98455.63;5016968;28;20223;-73
2022/01/09 00:47:46;;;;;;;2.00;1.73;;;;;;;2.77;77.09;98444.25;5017913;28;20218;-73
2022/01/09 00:50:14;;;;;;;2.40;1.60;;;;;;;2.79;77.07;98434.47;5018804;28;20199;-73
2022/01/09 00:52:41;;;;;;;2.73;2.17;;;;;;;2.79;76.23;98437.13;5018407;28;20683;-73
2022/01/09 00:55:10;;;;;;;2.70;1.87;;;;;;;2.80;76.54;98424.81;5017626;28;20309;-73
2022/01/09 00:57:37;;;;;;;2.97;1.80;;;;;;;2.81;76.35;98417.78;5018272;28;20770;-73
2022/01/09 01:00:05;;;;;;;2.93;1.93;;;;;;;2.79;76.38;98416.09;5022030;28;20211;-73
2022/01/09 01:02:32;;;;;;;2.13;1.77;;;;;;;2.79;76.75;98421.34;5019390;28;20202;-73
2022/01/09 01:04:58;;;;;;;3.53;1.90;;;;;;;2.81;77.02;98423.03;5019094;28;20598;-73
2022/01/09 01:07:27;;;;;;;2.17;1.87;;;;;;;2.78;77.22;98424.91;5017815;28;20579;-72
2022/01/09 01:09:56;;;;;;;2.13;1.63;;;;;;;2.78;76.92;98422.28;5019013;28;20209;-72
2022/01/09 01:12:25;;;;;;;1.80;1.60;;;;;;;2.79;77.19;98421.34;5017939;28;20202;-73
2022/01/09 01:14:52;;;;;;;3.10;1.70;;;;;;;2.81;76.91;98409.88;5017791;28;20222;-73
2022/01/09 01:17:18;;;;;;;2.13;1.63;;;;;;;2.79;76.96;98412.63;5013877;28;20570;-72
2022/01/09 01:19:45;;;;;;;2.43;1.90;;;;;;;2.80;77.56;98411.66;5022414;28;20237;-73
2022/01/09 01:22:12;;;;;;;1.97;1.67;;;;;;;2.81;76.78;98408.09;5020817;28;20680;-72
2022/01/09 01:24:39;;;;;;;2.50;1.60;;;;;;;2.79;76.87;98397.69;5020170;28;20229;-73
2022/01/09 01:27:06;;;;;;;2.20;2.00;;;;;;;2.74;77.53;98402.41;5021868;28;20293;-73
2022/01/09 01:29:35;;;;;;;1.90;1.70;;;;;;;2.76;77.74;98395.25;5020892;28;20206;-73
2022/01/09 01:32:02;;;;;;;2.30;1.27;;;;;;;2.75;77.44;98383.06;5019229;28;20217;-73
2022/01/09 01:34:28;;;;;;;3.20;2.00;;;;;;;2.75;77.54;98384.84;5021209;28;20225;-72
2022/01/09 01:36:55;;;;;;;2.43;1.50;;;;;;;2.75;76.82;98376.97;5026577;28;20210;-73
2022/01/09 01:39:21;;;;;;;2.33;1.63;;;;;;;2.75;77.40;98367.28;5028725;28;20201;-73
2022/01/09 01:41:48;;;;;;;2.27;1.73;;;;;;;2.78;77.66;98376.75;5029557;28;20198;-73
2022/01/09 01:44:15;;;;;;;1.70;1.60;;;;;;;2.78;77.42;98363.63;5029282;28;20230;-73
2022/01/09 01:46:43;;;;;;;1.70;1.60;;;;;;;2.80;77.03;98374.88;5024121;28;20208;-73
2022/01/09 01:49:12;;;;;;;2.90;1.70;;;;;;;2.81;77.03;98365.19;5026122;28;20612;-72
2022/01/09 01:51:41;;;;;;;4.23;1.53;;;;;;;2.82;77.73;98369.50;5021283;28;20206;-73
2022/01/09 01:54:09;;;;;;;1.60;1.33;;;;;;;2.82;77.82;98361.63;5026681;28;20225;-73
2022/01/09 01:56:36;;;;;;;1.77;1.33;;;;;;;2.83;77.02;98365.94;5029266;28;20206;-73
2022/01/09 01:59:02;;;;;;;1.63;1.33;;;;;;;2.83;77.51;98355.44;5028690;28;20222;-72
2022/01/09 02:01:29;;;;;;;2.97;1.83;;;;;;;2.83;77.46;98355.44;5029705;28;20210;-73
2022/01/09 02:03:57;;;;;;;2.10;1.53;;;;;;;2.83;77.47;98347.53;5029774;28;20202;-73
2022/01/09 02:06:24;;;;;;;2.20;1.40;;;;;;;2.83;77.88;98347.53;5057613;22;20233;-72
2022/01/09 02:08:52;;;;;;;1.77;1.50;;;;;;;2.82;77.85;98346.69;5027208;28;20210;-71
2022/01/09 02:11:19;;;;;;;1.70;1.37;;;;;;;2.79;77.87;98336.38;5026504;28;20679;-72
2022/01/09 02:13:46;;;;;;;3.13;1.53;;;;;;;2.82;77.41;98335.34;5026739;28;20202;-71
2022/01/09 02:16:17;;;;;;;2.73;1.67;;;;;;;2.81;77.71;98336.28;5031326;28;20237;-72
2022/01/09 02:18:44;;;;;;;2.57;1.60;;;;;;;2.79;77.54;98331.97;5028056;28;20313;-72
2022/01/09 02:21:13;;;;;;;3.40;1.70;;;;;;;2.79;78.03;98326.72;5030176;28;20240;-72
2022/01/09 02:23:41;;;;;;;2.00;1.60;;;;;;;2.77;77.75;98319.88;5027685;28;20202;-71
2022/01/09 02:26:08;;;;;;;2.63;1.13;;;;;;;2.77;78.09;98320.72;5028095;28;20254;-71
2022/01/09 02:28:35;;;;;;;2.60;1.60;;;;;;;2.75;78.14;98330.50;5033278;28;20202;-71
2022/01/09 02:31:01;;;;;;;1.47;1.30;;;;;;;2.73;78.12;98324.50;5016810;28;20232;-72
2022/01/09 02:33:28;;;;;;;1.57;1.37;;;;;;;2.75;78.40;98319.97;5026486;28;20210;-72
2022/01/09 02:35:56;;;;;;;2.23;1.30;;;;;;;2.76;78.40;98319.03;5025883;28;20226;-71
2022/01/09 02:38:24;;;;;;;2.37;1.47;;;;;;;2.79;79.53;98307.47;5033316;28;20266;-71
2022/01/09 02:40:51;;;;;;;1.47;1.30;;;;;;;2.78;79.48;98316.31;5029363;28;20232;-72
2022/01/09 02:43:18;;;;;;;1.60;1.43;;;;;;;2.76;79.00;98311.16;5013556;28;20278;-69
2022/01/09 02:45:48;;;;;;;1.70;1.23;;;;;;;2.78;79.21;98304.00;5035403;28;20232;-71
2022/01/09 02:48:14;;;;;;;1.53;1.40;;;;;;;2.79;79.67;98300.44;5018911;28;20207;-72
2022/01/09 02:50:51;;;;;;;2.50;1.30;;;;;;;2.79;79.47;98292.53;5018595;28;20217;-71
2022/01/09 02:53:20;;;;;;;1.70;1.40;;;;;;;2.76;79.97;98295.38;5014439;28;20210;-71
2022/01/09 02:55:49;;;;;;;1.80;1.33;;;;;;;2.78;79.84;98301.38;5023793;28;20221;-71
2022/01/09 02:58:16;;;;;;;1.60;1.37;;;;;;;2.78;79.67;98296.13;5028295;28;20279;-70
2022/01/09 03:00:44;;;;;;;2.30;1.63;;;;;;;2.77;79.72;98290.97;5024349;28;20222;-71
2022/01/09 03:03:11;;;;;;;2.00;1.50;;;;;;;2.78;80.20;98295.28;5021225;28;20586;-70
2022/01/09 03:05:38;;;;;;;2.23;1.60;;;;;;;2.79;80.23;98296.97;5042113;28;20855;-68
2022/01/09 03:08:05;;;;;;;1.60;1.40;;;;;;;2.79;80.57;98297.81;5046877;28;20202;-71
2022/01/09 03:10:32;;;;;;;2.17;1.50;;;;;;;2.83;80.70;98279.19;5036671;28;20216;-71
2022/01/09 03:13:00;;;;;;;2.10;1.50;;;;;;;2.84;80.84;98280.88;5036105;28;20218;-72
2022/01/09 03:15:27;;;;;;;2.07;1.60;;;;;;;2.86;80.66;98285.09;5041066;28;20226;-71
2022/01/09 03:17:54;;;;;;;1.30;1.20;;;;;;;2.88;80.38;98288.41;5040506;28;20226;-71
2022/01/09 03:20:23;;;;;;;3.07;1.57;;;;;;;2.89;80.41;98284.00;5050961;28;20210;-71
2022/01/09 03:22:50;;;;;;;1.17;1.07;;;;;;;2.90;80.95;98268.13;5042292;28;20292;-71
2022/01/09 03:25:17;;;;;;;1.37;1.27;;;;;;;2.91;80.75;98269.81;5044481;28;20746;-72
2022/01/09 03:27:46;;;;;;;1.83;1.20;;;;;;;2.93;81.36;98270.53;5034893;28;20675;-71
2022/01/09 03:30:14;;;;;;;1.20;1.10;;;;;;;2.96;80.89;98272.13;5044858;28;20206;-71
2022/01/09 03:32:42;;;;;;;2.03;1.50;;;;;;;2.97;81.18;98265.91;5044412;28;20198;-72
2022/01/09 03:35:11;;;;;;;2.50;1.40;;;;;;;2.99;81.14;98270.13;5046573;28;20722;-71
2022/01/09 03:37:39;;;;;;;1.20;1.10;;;;;;;3.00;80.67;98269.19;5052735;28;20216;-72
2022/01/09 03:40:08;;;;;;;1.87;1.23;;;;;;;3.03;81.47;98281.28;5052278;28;20209;-71
2022/01/09 03:42:34;;;;;;;1.90;1.27;;;;;;;3.03;80.61;98279.50;5039704;28;20687;-72
2022/01/09 03:45:01;;;;;;;1.80;1.40;;;;;;;3.06;81.29;98278.41;5050324;28;20230;-72
2022/01/09 03:47:29;;;;;;;2.03;1.13;;;;;;;3.07;81.02;98285.34;5042650;28;20301;-71
2022/01/09 03:49:55;;;;;;;1.90;1.00;;;;;;;3.07;80.90;98290.59;5047041;28;20208;-71
2022/01/09 03:52:26;;;;;;;1.10;0.97;;;;;;;3.09;81.10;98280.81;5054885;28;20210;-71
2022/01/09 03:54:53;;;;;;;1.93;1.10;;;;;;;3.10;81.17;98282.50;5046867;28;20635;-70
2022/01/09 03:57:19;;;;;;;1.00;0.90;;;;;;;3.12;80.43;98276.19;5048000;28;20678;-70
2022/01/09 03:59:46;;;;;;;1.33;1.10;;;;;;;3.14;80.88;98281.34;5038848;28;20237;-70
2022/01/09 04:02:12;;;;;;;1.53;1.20;;;;;;;3.15;80.83;98280.41;5045230;28;20205;-69
2022/01/09 04:04:40;;;;;;;1.10;1.00;;;;;;;3.16;80.73;98278.63;5038328;28;20210;-70
2022/01/09 04:07:07;;;;;;;3.03;1.20;;;;;;;3.17;80.88;98281.13;5042153;28;20206;-69
2022/01/09 04:09:38;;;;;;;1.27;0.80;;;;;;;3.18;80.92;98285.44;5040433;28;20221;-69
2022/01/09 04:12:08;;;;;;;1.17;1.07;;;;;;;3.19;81.25;98294.19;5040642;28;20206;-70
2022/01/09 04:14:35;;;;;;;1.20;1.10;;;;;;;3.19;81.10;98289.75;5048602;28;20201;-70
2022/01/09 04:17:03;;;;;;;1.50;1.10;;;;;;;3.20;80.45;98290.59;5043303;28;20229;-70
2022/01/09 04:19:30;;;;;;;1.20;0.93;;;;;;;3.22;80.60;98291.34;5048565;28;20245;-70
2022/01/09 04:21:57;;;;;;;1.80;1.33;;;;;;;3.22;80.35;98288.72;5052589;28;20217;-71
2022/01/09 04:24:24;;;;;;;1.13;0.93;;;;;;;3.22;81.15;98293.97;5038822;28;20280;-70
2022/01/09 04:26:50;;;;;;;1.60;1.43;;;;;;;3.21;81.14;98289.66;5051800;28;20205;-71
2022/01/09 04:29:17;;;;;;;1.83;1.30;;;;;;;3.21;81.35;98295.75;5040052;28;20636;-70
2022/01/09 04:31:43;;;;;;;1.20;1.10;;;;;;;3.21;80.56;98293.13;5043072;28;20213;-70
2022/01/09 04:34:10;;;;;;;1.57;1.13;;;;;;;3.22;80.84;98296.59;5044232;28;20320;-71
2022/01/09 04:36:36;;;;;;;1.00;1.00;;;;;;;3.21;80.86;98295.75;5048067;28;20232;-70
2022/01/09 04:39:04;;;;;;;1.50;1.37;;;;;;;3.21;80.68;98298.38;5048648;28;20303;-70
2022/01/09 04:41:31;;;;;;;1.50;1.30;;;;;;;3.19;80.84;98295.03;5035001;28;20301;-71
2022/01/09 04:43:57;;;;;;;1.13;1.00;;;;;;;3.19;80.83;98291.56;5039479;28;20211;-69
2022/01/09 04:46:31;;;;;;;1.27;1.17;;;;;;;3.19;80.92;98295.03;5051015;28;20335;-70
2022/01/09 04:48:58;;;;;;;1.30;1.20;;;;;;;3.17;80.94;98296.91;5033384;28;20598;-70
2022/01/09 04:51:24;;;;;;;1.10;0.90;;;;;;;3.16;81.17;98300.50;5035889;28;20206;-71
2022/01/09 04:53:51;;;;;;;0.80;0.80;;;;;;;3.16;81.85;98305.75;5047232;28;20217;-70
2022/01/09 04:56:19;;;;;;;1.27;1.00;;;;;;;3.16;81.90;98304.91;5044921;28;20221;-71
2022/01/09 04:58:45;;;;;;;1.10;1.00;;;;;;;3.15;81.28;98306.69;5038391;28;20222;-70
2022/01/09 05:01:12;;;;;;;1.33;1.03;;;;;;;3.14;81.36;98305.84;5042714;28;20583;-71
2022/01/09 05:03:38;;;;;;;1.77;1.20;;;;;;;3.14;82.01;98305.84;5040144;28;20690;-69
2022/01/09 05:06:05;;;;;;;2.13;1.43;;;;;;;3.12;81.98;98318.28;5038913;28;20237;-70
2022/01/09 05:08:31;;;;;;;1.60;1.20;;;;;;;3.12;82.23;98304.28;5037759;28;20209;-70
2022/01/09 05:10:58;;;;;;;1.10;1.00;;;;;;;3.11;81.74;98306.06;5044931;28;20209;-70
2022/01/09 05:13:26;;;;;;;1.17;1.00;;;;;;;3.11;82.28;98316.59;5054859;28;20207;-71
2022/01/09 05:15:52;;;;;;;2.03;1.40;;;;;;;3.09;82.43;98323.75;5051289;28;20225;-69
2022/01/09 05:18:20;;;;;;;2.50;1.10;;;;;;;3.09;81.89;98326.38;5040169;28;20569;-71
2022/01/09 05:20:46;;;;;;;1.87;1.40;;;;;;;3.11;82.17;98331.53;5042079;28;20298;-71
2022/01/09 05:23:13;;;;;;;4.57;1.50;;;;;;;3.10;82.58;98335.09;5048159;28;20459;-71
2022/01/09 05:25:40;;;;;;;4.83;1.70;;;;;;;3.11;82.74;98332.38;5047305;28;20241;-71
2022/01/09 05:28:06;;;;;;;1.30;1.10;;;;;;;3.10;82.24;98343.84;5049614;28;20681;-71
2022/01/09 05:30:34;;;;;;;2.60;1.30;;;;;;;3.09;82.75;98341.31;5047753;28;20209;-70
2022/01/09 05:33:01;;;;;;;3.33;1.30;;;;;;;3.09;82.67;98343.94;5039129;28;20212;-70
2022/01/09 05:35:27;;;;;;;3.57;1.23;;;;;;;3.08;82.90;98342.25;5047296;28;20237;-71
2022/01/09 05:37:54;;;;;;;1.70;1.10;;;;;;;3.07;83.03;98345.84;5043447;28;20212;-69
2022/01/09 05:40:21;;;;;;;1.10;1.00;;;;;;;3.06;82.68;98342.34;5046871;28;20229;-70
2022/01/09 05:42:48;;;;;;;2.90;1.47;;;;;;;3.04;83.31;98341.66;5039786;28;20690;-71
2022/01/09 05:45:17;;;;;;;2.97;1.30;;;;;;;3.05;82.67;98347.72;5043864;28;20233;-71
2022/01/09 05:47:45;;;;;;;4.60;2.17;;;;;;;3.05;82.76;98347.72;5040409;28;20206;-71
2022/01/09 05:50:12;;;;;;;2.40;1.57;;;;;;;3.04;82.91;98351.31;5034462;28;20198;-71
2022/01/09 05:52:38;;;;;;;1.37;1.20;;;;;;;3.04;83.52;98348.69;5032258;28;20218;-70
2022/01/09 05:55:06;;;;;;;1.63;1.17;;;;;;;3.03;83.71;98363.63;5033368;28;20746;-69
2022/01/09 05:57:32;;;;;;;1.30;1.17;;;;;;;3.00;83.51;98363.00;5045891;28;20210;-71
2022/01/09 05:59:59;;;;;;;2.03;1.40;;;;;;;3.01;83.24;98362.91;5049957;28;20225;-70
2022/01/09 06:02:25;;;;;;;2.30;1.10;;;;;;;3.01;83.11;98362.06;5048699;28;20217;-71
2022/01/09 06:04:53;;;;;;;1.20;1.10;;;;;;;3.01;83.23;98367.31;5048423;28;20237;-71
2022/01/09 06:07:20;;;;;;;1.10;0.90;;;;;;;3.02;83.91;98369.00;5040559;28;20244;-72
2022/01/09 06:09:46;;;;;;;1.93;1.30;;;;;;;3.01;83.27;98373.41;5039948;28;20235;-71
2022/01/09 06:12:13;;;;;;;1.30;1.00;;;;;;;3.01;83.57;98377.81;5049711;28;20220;-70
2022/01/09 06:14:39;;;;;;;1.40;1.20;;;;;;;2.99;83.63;98379.72;5035644;28;20364;-71
2022/01/09 06:17:06;;;;;;;0.70;0.70;;;;;;;3.03;83.25;98375.94;5041006;28;20663;-71
2022/01/09 06:19:32;;;;;;;1.37;1.00;;;;;;;3.00;83.68;98389.28;5041439;28;20225;-70
2022/01/09 06:22:00;;;;;;;2.80;1.10;;;;;;;2.97;83.50;98389.50;5048854;28;20576;-70
2022/01/09 06:24:27;;;;;;;1.90;1.20;;;;;;;2.97;83.85;98397.38;5045910;28;20202;-71
2022/01/09 06:26:53;;;;;;;1.47;0.97;;;;;;;2.94;84.34;98387.91;5042349;28;20212;-71
2022/01/09 06:29:20;;;;;;;2.60;1.40;;;;;;;2.92;84.12;98386.31;5044771;28;20202;-71
2022/01/09 06:31:46;;;;;;;2.70;1.13;;;;;;;2.92;84.08;98399.47;5048023;28;20216;-72
2022/01/09 06:34:13;;;;;;;1.00;0.87;;;;;;;2.91;84.16;98403.88;5045187;28;20210;-71
2022/01/09 06:36:40;;;;;;;2.07;1.07;;;;;;;2.89;84.22;98399.69;5049254;28;20586;-71
2022/01/09 06:39:08;;;;;;;1.27;0.93;;;;;;;2.86;83.88;98411.28;5046302;28;20236;-70
2022/01/09 06:41:35;;;;;;;0.90;0.80;;;;;;;2.86;83.96;98413.91;5048957;28;20299;-72
2022/01/09 06:44:01;;;;;;;0.70;0.70;;;;;;;2.87;84.71;98419.97;5048347;28;20208;-71
2022/01/09 06:46:28;;;;;;;0.97;0.90;;;;;;;2.84;84.30;98423.66;5049493;28;20229;-71
2022/01/09 06:48:54;;;;;;;0.83;0.70;;;;;;;2.86;85.07;98429.66;5044160;28;20210;-71
2022/01/09 06:51:21;;;;;;;0.70;0.70;;;;;;;2.88;85.00;98429.53;5048092;28;20205;-70
2022/01/09 06:53:47;;;;;;;0.67;0.67;;;;;;;2.89;84.66;98434.69;5046745;28;20679;-71
2022/01/09 06:56:15;;;;;;;0.90;0.80;;;;;;;2.87;84.49;98435.75;5044833;28;20233;-71
2022/01/09 06:58:42;;;;;;;1.20;0.90;;;;;;;2.86;84.77;98436.72;5035478;28;20589;-71
2022/01/09 07:01:08;;;;;;;0.97;0.90;;;;;;;2.83;84.76;98442.16;5040362;28;20217;-71
2022/01/09 07:03:35;;;;;;;0.80;0.67;;;;;;;2.86;84.59;98447.22;5046873;28;20247;-71
2022/01/09 07:06:01;;;;;;;1.07;0.87;;;;;;;2.84;84.59;98452.59;5053239;28;20233;-71
2022/01/09 07:08:29;;;;;;;0.50;0.50;;;;;;;2.84;85.47;98452.59;5045587;28;20209;-71
2022/01/09 07:10:55;;;;;;;0.80;0.80;;;;;;;2.82;85.57;98461.50;5048585;28;20826;-72
2022/01/09 07:13:23;;;;;;;0.73;0.70;;;;;;;2.79;85.30;98458.16;5047352;28;20198;-71
2022/01/09 07:15:49;;;;;;;1.03;0.77;;;;;;;2.82;85.47;98459.72;5037425;28;20248;-71
2022/01/09 07:18:16;;;;;;;1.10;0.80;;;;;;;2.80;85.67;98466.88;5037315;28;20210;-71
2022/01/09 07:20:42;;;;;;;0.70;0.63;;;;;;;2.79;85.60;98476.53;5041132;28;20226;-71
2022/01/09 07:23:09;;;;;;;0.70;0.67;;;;;;;2.77;86.13;98481.06;5045090;28;20359;-71
2022/01/09 07:25:36;;;;;;;0.60;0.60;;;;;;;2.77;85.43;98493.34;5037451;28;20226;-70
2022/01/09 07:28:02;;;;;;;0.97;0.80;;;;;;;2.75;85.81;98490.81;5041646;28;20213;-71
2022/01/09 07:30:30;;;;;;;1.60;1.00;;;;;;;2.73;86.02;98494.50;5032884;28;20229;-70
2022/01/09 07:32:58;;;;;;;2.07;1.10;;;;;;;2.69;85.84;98499.09;5036233;28;20225;-72
2022/01/09 07:35:25;;;;;;;1.40;1.00;;;;;;;2.68;86.31;98502.69;5034782;28;20723;-71
2022/01/09 07:37:52;;;;;;;1.70;1.00;;;;;;;2.67;85.92;98506.28;5048751;28;20667;-72
2022/01/09 07:40:20;;;;;;;1.30;0.93;;;;;;;2.64;86.29;98516.97;5052007;28;20221;-72
2022/01/09 07:42:47;;;;;;;1.43;1.00;;;;;;;2.63;85.59;98525.81;5045458;28;20613;-71
2022/01/09 07:45:14;;;;;;;1.70;1.10;;;;;;;2.62;85.65;98518.00;5034059;28;20252;-72
2022/01/09 07:47:43;;;;;;;1.47;1.20;;;;;;;2.60;85.91;98527.78;5046829;28;20207;-73
2022/01/09 07:50:10;;;;;;;1.90;1.17;;;;;;;2.58;86.73;98538.38;5042417;28;20218;-72
2022/01/09 07:52:37;;;;;;;1.13;0.90;;;;;;;2.53;86.78;98535.19;5037001;28;20214;-72
2022/01/09 07:55:06;;;;;;;0.90;0.90;;;;;;;2.51;86.03;98541.53;5051235;28;20228;-72
2022/01/09 07:57:33;;;;;;;1.03;1.03;;;;;;;2.48;86.23;98539.09;5039658;28;20218;-72
2022/01/09 08:00:02;;;;;;;1.27;1.00;;;;;;;2.46;86.26;98548.84;5048503;28;20256;-72
2022/01/09 08:02:29;;;;;;;1.07;0.97;;;;;;;2.43;86.11;98555.13;5049308;28;20217;-72
2022/01/09 08:07:29;;;;;;;1.17;1.07;;;;;;;2.39;86.23;98556.25;5028812;28;20246;-72
2022/01/09 08:09:56;;;;;;;1.30;1.10;;;;;;;2.37;86.68;98572.13;5039314;28;20679;-73
2022/01/09 08:12:22;;;;;;;0.93;0.93;;;;;;;2.36;86.82;98578.31;5031209;28;20699;-75
2022/01/09 08:14:49;;;;;;;1.80;1.40;;;;;;;2.35;86.95;98576.63;5030629;28;20572;-73
2022/01/09 08:17:16;;;;;;;1.20;1.10;;;;;;;2.35;87.26;98581.03;5026934;28;20222;-73
2022/01/09 08:19:42;;;;;;;1.27;1.17;;;;;;;2.35;87.22;98583.66;5036918;28;20233;-73
2022/01/09 08:22:09;;;;;;;1.30;1.20;;;;;;;2.30;87.10;98593.63;5039277;28;20201;-72
2022/01/09 08:24:38;;;;;;;1.33;1.20;;;;;;;2.27;87.37;98592.03;5022045;28;20210;-72
2022/01/09 08:27:06;;;;;;;1.63;1.30;;;;;;;2.24;87.20;98591.38;5025771;28;20284;-74
2022/01/09 08:29:33;;;;;;;1.50;1.27;;;;;;;2.23;87.51;98603.66;5031575;28;20222;-75
2022/01/09 08:31:59;;;;;;;1.10;1.00;;;;;;;2.22;88.15;98615.09;5045543;28;20208;-73
2022/01/09 08:34:26;;;;;;;1.00;0.90;;;;;;;2.20;87.65;98616.13;5035948;28;20809;-73
2022/01/09 08:36:53;;;;;;;0.70;0.70;;;;;;;2.18;88.04;98615.38;5022458;28;20227;-73
2022/01/09 08:39:19;;;;;;;1.00;0.90;;;;;;;2.14;88.14;98630.50;5036414;28;20213;-74
2022/01/09 08:41:47;;;;;;;1.00;0.83;;;;;;;2.14;88.09;98627.03;5028368;28;20209;-74
2022/01/09 08:44:14;;;;;;;0.97;0.90;;;;;;;2.11;88.17;98633.31;5035223;28;20658;-73
2022/01/09 08:46:41;;;;;;;0.93;0.80;;;;;;;2.07;88.11;98644.94;5019425;28;20229;-73
2022/01/09 08:49:07;;;;;;;2.10;1.83;;;;;;;2.02;87.71;98645.19;5031825;28;20214;-74
2022/01/09 08:51:34;;;;;;;2.60;2.40;;;;;;;1.99;87.48;98652.41;5021553;28;20574;-74
2022/01/09 08:54:01;;;;;;;1.27;1.17;;;;;;;1.92;87.85;98654.59;5020170;28;20214;-74
2022/01/09 08:56:29;;;;;;;1.33;1.23;;;;;;;1.87;87.47;98667.13;5028193;28;20230;-74
2022/01/09 08:59:01;;;;;;;0.83;0.77;;;;;;;1.82;87.34;98669.16;5021308;28;20209;-74
2022/01/09 09:01:27;;;;;;;0.80;0.80;;;;;;;1.78;88.04;98665.06;5025461;28;20235;-75
2022/01/09 09:03:54;;;;;;;0.70;0.70;;;;;;;1.74;87.53;98666.19;5023585;28;20199;-74
2022/01/09 09:06:20;;;;;;;1.03;0.90;;;;;;;1.70;87.76;98673.38;5016784;28;20270;-76
2022/01/09 09:08:47;;;;;;;1.10;0.90;;;;;;;1.67;87.96;98672.72;5008168;28;20207;-75
2022/01/09 09:11:13;;;;;;;1.53;1.07;;;;;;;1.65;87.44;98671.94;5006152;28;20226;-75
2022/01/09 09:13:40;;;;;;;2.63;1.00;;;;;;;1.65;87.70;98677.19;5008301;28;20206;-76
2022/01/09 09:16:09;;;;;;;1.57;1.20;;;;;;;1.64;87.90;98678.97;5008322;28;20234;-76
2022/01/09 09:18:36;;;;;;;1.87;0.90;;;;;;;1.64;88.43;98676.34;5002327;28;20214;-75
2022/01/09 09:21:04;;;;;;;1.33;1.23;;;;;;;1.67;88.25;98683.19;5000438;28;20238;-75
2022/01/09 09:23:30;;;;;;;0.97;0.90;;;;;;;1.70;88.77;98686.50;5004059;28;20202;-74
2022/01/09 09:25:57;;;;;;;2.33;1.07;;;;;;;1.72;88.45;98689.88;5000389;28;20238;-74
2022/01/09 09:28:24;;;;;;;1.23;1.13;;;;;;;1.75;88.84;98694.09;5003798;28;20207;-75
2022/01/09 09:30:50;;;;;;;2.77;1.57;;;;;;;1.78;88.84;98691.31;5005857;28;20680;-75
2022/01/09 09:33:18;;;;;;;1.87;1.10;;;;;;;1.82;88.86;98691.94;4997259;28;20216;-75
2022/01/09 09:35:45;;;;;;;0.80;0.80;;;;;;;1.86;88.94;98694.31;5013982;28;20241;-75
2022/01/09 09:38:12;;;;;;;1.13;1.00;;;;;;;1.90;89.58;98698.44;4996727;28;20592;-74
2022/01/09 09:40:38;;;;;;;1.30;1.20;;;;;;;1.95;89.68;98699.03;5014755;28;20222;-75
2022/01/09 09:43:05;;;;;;;1.40;1.30;;;;;;;1.99;89.42;98711.00;5002011;28;20211;-75
2022/01/09 09:45:31;;;;;;;3.83;1.83;;;;;;;2.05;89.81;98720.31;5007729;28;20249;-74
2022/01/09 09:47:58;;;;;;;5.00;3.17;;;;;;;2.10;89.54;98731.41;5008742;28;20214;-74
2022/01/09 09:50:26;;;;;;;5.10;3.70;;;;;;;2.12;90.02;98732.16;4995483;28;20211;-75
2022/01/09 09:52:53;;;;;;;3.00;1.50;;;;;;;2.16;89.90;98741.53;4995363;28;20229;-74
2022/01/09 09:55:20;;;;;;;2.70;1.63;;;;;;;2.22;89.92;98737.69;4999551;28;20274;-75
2022/01/09 09:57:47;;;;;;;3.63;2.07;;;;;;;2.27;90.19;98730.41;5015668;28;20210;-74
2022/01/09 10:00:16;;;;;;;2.87;1.60;;;;;;;2.30;91.09;98743.34;5008670;28;20234;-76
2022/01/09 10:02:45;;;;;;;3.30;2.33;;;;;;;2.35;90.71;98741.28;5001730;28;20203;-73
2022/01/09 10:05:14;;;;;;;3.70;2.20;;;;;;;2.39;91.07;98745.41;5008477;28;20203;-74
2022/01/09 10:07:42;;;;;;;8.83;4.87;;;;;;;2.44;91.24;98740.72;5005092;28;20203;-74
2022/01/09 10:10:11;;;;;;;5.17;3.30;;;;;;;2.50;90.94;98743.00;5012988;28;20215;-72
2022/01/09 10:12:38;;;;;;;7.40;5.10;;;;;;;2.55;91.82;98745.31;5011703;28;20588;-73
2022/01/09 10:15:07;;;;;;;8.00;3.27;;;;;;;2.59;91.25;98745.03;5012664;28;20207;-73
2022/01/09 10:17:35;;;;;;;8.70;4.27;;;;;;;2.66;91.88;98756.03;4995784;28;20207;-73
2022/01/09 10:20:09;;;;;;;6.40;3.00;;;;;;;2.71;91.50;98753.94;4997933;28;20211;-73
2022/01/09 10:22:37;;;;;;;8.80;4.53;;;;;;;2.75;92.44;98756.31;5001203;28;20593;-73
2022/01/09 10:25:30;;;;;;;7.73;3.30;;;;;;;2.81;92.34;98759.50;4996974;28;20214;-73
2022/01/09 10:28:00;;;;;;;7.33;3.90;;;;;;;2.86;92.07;98766.19;4997662;28;20218;-73
2022/01/09 10:30:30;;;;;;;10.43;5.17;;;;;;;2.91;92.28;98757.97;5007912;28;20212;-73
2022/01/09 10:32:57;;;;;;;10.30;5.23;;;;;;;2.96;92.47;98774.31;5007076;28;20353;-72
2022/01/09 10:35:25;;;;;;;9.40;4.77;;;;;;;3.02;92.59;98764.28;5010041;28;20229;-73
2022/01/09 10:38:11;;;;;;;11.67;5.57;;;;;;;3.10;92.77;98775.16;5000711;28;20573;-73
2022/01/09 10:40:40;;;;;;;13.10;5.50;;;;;;;3.16;93.00;98779.19;5013172;28;20717;-73
2022/01/09 10:43:09;;;;;;;15.17;10.23;;;;;;;3.21;92.71;98790.28;5002296;28;20199;-72
2022/01/09 10:45:40;;;;;;;17.37;10.10;;;;;;;3.29;93.23;98795.03;5007370;28;20223;-72
2022/01/09 10:48:08;;;;;;;20.70;12.57;;;;;;;3.35;94.07;98786.75;4997661;28;20231;-72
2022/01/09 10:50:38;;;;;;;25.50;19.13;;;;;;;3.43;93.72;98785.31;5002875;28;20209;-73
2022/01/09 10:53:27;;;;;;;12.47;6.17;;;;;;;3.53;94.29;98800.53;5003794;28;20208;-73
2022/01/09 10:56:07;;;;;;;17.33;9.27;;;;;;;3.59;93.58;98802.75;5000127;28;20255;-73
2022/01/09 10:58:36;;;;;;;13.73;8.40;;;;;;;3.65;93.86;98802.38;4999076;28;20213;-73
2022/01/09 11:01:17;;;;;;;19.07;11.63;;;;;;;3.69;94.56;98807.34;5001613;28;20232;-72
2022/01/09 11:03:45;;;;;;;24.23;16.70;;;;;;;3.74;94.54;98809.69;4998231;28;20657;-72
2022/01/09 11:06:13;;;;;;;16.33;6.07;;;;;;;3.77;94.26;98810.31;4993604;28;20707;-72
2022/01/09 11:08:41;;;;;;;11.07;5.27;;;;;;;3.82;94.81;98812.66;4999170;28;20206;-72
2022/01/09 11:11:19;;;;;;;12.17;5.60;;;;;;;3.87;94.25;98823.75;5000275;28;20211;-72
2022/01/09 11:13:47;;;;;;;12.03;5.30;;;;;;;3.90;94.38;98820.06;5005231;28;20471;-72
2022/01/09 11:16:33;;;;;;;29.77;15.57;;;;;;;3.94;94.50;98825.00;5010020;28;20233;-72
2022/01/09 11:19:02;;;;;;;21.97;9.50;;;;;;;3.98;94.56;98831.78;5007247;28;20203;-73
2022/01/09 11:21:29;;;;;;;32.00;13.43;;;;;;;4.01;94.59;98844.75;5009727;28;20227;-73
2022/01/09 11:24:10;;;;;;;11.27;7.00;;;;;;;4.03;95.00;98842.88;5003460;28;20204;-71
2022/01/09 11:26:47;;;;;;;12.17;5.77;;;;;;;4.06;95.07;98847.94;5001934;28;20231;-73
2022/01/09 11:29:18;;;;;;;10.27;4.93;;;;;;;4.09;94.77;98846.91;5003984;28;20207;-72
2022/01/09 11:31:50;;;;;;;9.73;3.50;;;;;;;4.12;94.90;98854.59;5006273;28;20672;-72
2022/01/09 11:34:24;;;;;;;13.33;4.77;;;;;;;4.14;95.14;98858.81;5012636;28;20202;-72
2022/01/09 11:37:01;;;;;;;15.20;4.27;;;;;;;4.19;94.97;98867.25;5014947;28;20249;-73
2022/01/09 11:39:35;;;;;;;15.90;4.23;;;;;;;4.23;95.15;98869.69;5001508;28;20673;-73
2022/01/09 11:42:09;;;;;;;11.23;3.93;;;;;;;4.29;95.18;98879.84;5008486;28;20227;-73
2022/01/09 11:44:44;;;;;;;12.73;3.93;;;;;;;4.33;95.20;98891.84;5001686;28;20663;-73
2022/01/09 11:47:10;;;;;;;9.73;4.80;;;;;;;4.37;94.61;98895.97;5005564;28;20236;-73